sensor_id;sensor_type;location;lat;lon;timestamp;P1;durP1;ratioP1;P2;durP2;ratioP2
10452;SDS011;5274;51.992;8.518;2023-05-08T00:01:13;34.53;;;32.67;;
10452;SDS011;5274;51.992;8.518;2023-05-08T00:03:40;36.25;;;34.35;;
10452;SDS011;5274;51.992;8.518;2023-05-08T00:06:06;35.38;;;33.58;;
10452;SDS011;5274;51.992;8.518;2023-05-08T00:08:32;37.95;;;35.83;;
10452;SDS011;5274;51.992;8.518;2023-05-08T00:10:58;35.05;;;33.08;;
10452;SDS011;5274;51.992;8.518;2023-05-08T00:13:23;36.60;;;34.60;;
10452;SDS011;5274;51.992;8.518;2023-05-08T00:15:49;36.38;;;34.47;;
10452;SDS011;5274;51.992;8.518;2023-05-08T00:18:15;37.40;;;35.35;;
10452;SDS011;5274;51.992;8.518;2023-05-08T00:20:41;36.20;;;34.30;;
10452;SDS011;5274;51.992;8.518;2023-05-08T00:23:07;35.30;;;33.42;;
10452;SDS011;5274;51.992;8.518;2023-05-08T00:25:33;36.25;;;34.33;;
10452;SDS011;5274;51.992;8.518;2023-05-08T00:27:59;35.85;;;34.05;;
10452;SDS011;5274;51.992;8.518;2023-05-08T00:30:25;36.47;;;34.58;;
10452;SDS011;5274;51.992;8.518;2023-05-08T00:32:51;36.67;;;34.67;;
10452;SDS011;5274;51.992;8.518;2023-05-08T00:35:17;35.58;;;33.63;;
10452;SDS011;5274;51.992;8.518;2023-05-08T00:37:43;37.53;;;35.63;;
10452;SDS011;5274;51.992;8.518;2023-05-08T00:40:09;37.47;;;35.38;;
10452;SDS011;5274;51.992;8.518;2023-05-08T00:42:36;37.83;;;35.67;;
10452;SDS011;5274;51.992;8.518;2023-05-08T00:45:02;37.47;;;35.38;;
10452;SDS011;5274;51.992;8.518;2023-05-08T00:47:29;37.83;;;35.50;;
10452;SDS011;5274;51.992;8.518;2023-05-08T00:49:55;36.35;;;34.25;;
10452;SDS011;5274;51.992;8.518;2023-05-08T00:52:21;35.25;;;33.35;;
10452;SDS011;5274;51.992;8.518;2023-05-08T00:54:47;34.63;;;32.72;;
10452;SDS011;5274;51.992;8.518;2023-05-08T00:57:14;35.83;;;33.83;;
10452;SDS011;5274;51.992;8.518;2023-05-08T00:59:40;35.58;;;33.50;;
10452;SDS011;5274;51.992;8.518;2023-05-08T01:02:07;36.13;;;34.13;;
10452;SDS011;5274;51.992;8.518;2023-05-08T01:04:34;35.63;;;33.72;;
10452;SDS011;5274;51.992;8.518;2023-05-08T01:07:01;38.35;;;36.25;;
10452;SDS011;5274;51.992;8.518;2023-05-08T01:09:27;37.35;;;35.13;;
10452;SDS011;5274;51.992;8.518;2023-05-08T01:27:28;35.28;;;33.20;;
10452;SDS011;5274;51.992;8.518;2023-05-08T01:30:07;35.35;;;33.15;;
10452;SDS011;5274;51.992;8.518;2023-05-08T01:32:38;36.15;;;34.17;;
10452;SDS011;5274;51.992;8.518;2023-05-08T01:37:37;37.03;;;34.90;;
10452;SDS011;5274;51.992;8.518;2023-05-08T01:42:51;36.00;;;33.67;;
10452;SDS011;5274;51.992;8.518;2023-05-08T01:45:21;35.40;;;33.50;;
10452;SDS011;5274;51.992;8.518;2023-05-08T01:47:49;36.97;;;34.83;;
10452;SDS011;5274;51.992;8.518;2023-05-08T01:50:24;36.63;;;34.65;;
10452;SDS011;5274;51.992;8.518;2023-05-08T01:52:52;36.83;;;34.85;;
10452;SDS011;5274;51.992;8.518;2023-05-08T01:55:26;37.08;;;35.03;;
10452;SDS011;5274;51.992;8.518;2023-05-08T01:57:53;36.03;;;33.92;;
10452;SDS011;5274;51.992;8.518;2023-05-08T02:00:21;37.83;;;35.75;;
10452;SDS011;5274;51.992;8.518;2023-05-08T02:02:48;36.45;;;34.35;;
10452;SDS011;5274;51.992;8.518;2023-05-08T02:05:15;34.97;;;32.97;;
10452;SDS011;5274;51.992;8.518;2023-05-08T02:07:43;36.53;;;34.42;;
10452;SDS011;5274;51.992;8.518;2023-05-08T02:10:10;47.13;;;44.47;;
10452;SDS011;5274;51.992;8.518;2023-05-08T02:12:37;44.55;;;42.13;;
10452;SDS011;5274;51.992;8.518;2023-05-08T02:15:03;44.20;;;41.72;;
10452;SDS011;5274;51.992;8.518;2023-05-08T02:17:30;43.35;;;40.85;;
10452;SDS011;5274;51.992;8.518;2023-05-08T02:19:57;44.33;;;41.45;;
10452;SDS011;5274;51.992;8.518;2023-05-08T02:22:23;42.88;;;40.58;;
10452;SDS011;5274;51.992;8.518;2023-05-08T02:24:50;44.70;;;41.97;;
10452;SDS011;5274;51.992;8.518;2023-05-08T02:27:19;43.33;;;40.85;;
10452;SDS011;5274;51.992;8.518;2023-05-08T02:29:46;47.70;;;45.00;;
10452;SDS011;5274;51.992;8.518;2023-05-08T02:32:12;46.22;;;43.53;;
10452;SDS011;5274;51.992;8.518;2023-05-08T02:34:39;47.00;;;44.20;;
10452;SDS011;5274;51.992;8.518;2023-05-08T02:37:05;45.72;;;43.03;;
10452;SDS011;5274;51.992;8.518;2023-05-08T02:39:31;45.28;;;42.78;;
10452;SDS011;5274;51.992;8.518;2023-05-08T02:41:59;43.00;;;40.55;;
10452;SDS011;5274;51.992;8.518;2023-05-08T02:44:26;43.47;;;40.97;;
10452;SDS011;5274;51.992;8.518;2023-05-08T02:46:57;44.55;;;42.05;;
10452;SDS011;5274;51.992;8.518;2023-05-08T02:52:12;43.72;;;41.15;;
10452;SDS011;5274;51.992;8.518;2023-05-08T02:57:17;44.33;;;41.92;;
10452;SDS011;5274;51.992;8.518;2023-05-08T02:59:50;46.40;;;43.67;;
10452;SDS011;5274;51.992;8.518;2023-05-08T03:02:34;47.08;;;44.38;;
10452;SDS011;5274;51.992;8.518;2023-05-08T03:05:07;50.35;;;47.45;;
10452;SDS011;5274;51.992;8.518;2023-05-08T03:07:37;49.55;;;46.65;;
10452;SDS011;5274;51.992;8.518;2023-05-08T03:10:04;45.08;;;42.58;;
10452;SDS011;5274;51.992;8.518;2023-05-08T03:12:33;43.80;;;41.10;;
10452;SDS011;5274;51.992;8.518;2023-05-08T03:15:04;41.95;;;39.55;;
10452;SDS011;5274;51.992;8.518;2023-05-08T03:17:31;43.08;;;40.47;;
10452;SDS011;5274;51.992;8.518;2023-05-08T03:19:58;43.92;;;41.35;;
10452;SDS011;5274;51.992;8.518;2023-05-08T03:22:26;42.90;;;40.40;;
10452;SDS011;5274;51.992;8.518;2023-05-08T03:24:52;46.53;;;43.90;;
10452;SDS011;5274;51.992;8.518;2023-05-08T03:27:18;45.85;;;43.00;;
10452;SDS011;5274;51.992;8.518;2023-05-08T03:29:44;47.40;;;44.45;;
10452;SDS011;5274;51.992;8.518;2023-05-08T03:32:11;46.42;;;43.72;;
10452;SDS011;5274;51.992;8.518;2023-05-08T03:34:38;44.63;;;41.78;;
10452;SDS011;5274;51.992;8.518;2023-05-08T03:37:05;43.45;;;40.95;;
10452;SDS011;5274;51.992;8.518;2023-05-08T03:39:31;43.38;;;40.78;;
10452;SDS011;5274;51.992;8.518;2023-05-08T03:41:57;45.85;;;43.20;;
10452;SDS011;5274;51.992;8.518;2023-05-08T03:44:23;44.30;;;41.75;;
10452;SDS011;5274;51.992;8.518;2023-05-08T03:46:51;44.92;;;42.20;;
10452;SDS011;5274;51.992;8.518;2023-05-08T03:49:18;42.63;;;40.17;;
10452;SDS011;5274;51.992;8.518;2023-05-08T03:51:46;45.05;;;42.25;;
10452;SDS011;5274;51.992;8.518;2023-05-08T03:54:12;46.15;;;43.42;;
10452;SDS011;5274;51.992;8.518;2023-05-08T03:56:38;46.92;;;44.15;;
10452;SDS011;5274;51.992;8.518;2023-05-08T04:01:37;59.58;;;55.38;;
10452;SDS011;5274;51.992;8.518;2023-05-08T04:06:33;58.13;;;53.83;;
10452;SDS011;5274;51.992;8.518;2023-05-08T04:09:01;57.83;;;53.50;;
10452;SDS011;5274;51.992;8.518;2023-05-08T04:14:29;56.17;;;52.08;;
10452;SDS011;5274;51.992;8.518;2023-05-08T04:16:59;55.00;;;51.03;;
10452;SDS011;5274;51.992;8.518;2023-05-08T04:19:28;56.45;;;52.42;;
10452;SDS011;5274;51.992;8.518;2023-05-08T04:21:58;58.50;;;54.22;;
10452;SDS011;5274;51.992;8.518;2023-05-08T04:24:26;58.35;;;53.83;;
10452;SDS011;5274;51.992;8.518;2023-05-08T04:26:53;55.53;;;51.70;;
10452;SDS011;5274;51.992;8.518;2023-05-08T04:29:19;57.72;;;53.30;;
10452;SDS011;5274;51.992;8.518;2023-05-08T04:31:45;57.53;;;53.35;;
10452;SDS011;5274;51.992;8.518;2023-05-08T04:34:14;57.08;;;52.90;;
10452;SDS011;5274;51.992;8.518;2023-05-08T04:36:40;56.85;;;52.45;;
10452;SDS011;5274;51.992;8.518;2023-05-08T04:39:06;52.80;;;49.05;;
10452;SDS011;5274;51.992;8.518;2023-05-08T04:41:32;57.25;;;53.15;;
10452;SDS011;5274;51.992;8.518;2023-05-08T04:43:59;55.70;;;51.70;;
10452;SDS011;5274;51.992;8.518;2023-05-08T04:46:25;54.58;;;50.67;;
10452;SDS011;5274;51.992;8.518;2023-05-08T04:48:51;56.42;;;52.25;;
10452;SDS011;5274;51.992;8.518;2023-05-08T04:51:17;57.95;;;53.85;;
10452;SDS011;5274;51.992;8.518;2023-05-08T04:53:43;57.70;;;53.60;;
10452;SDS011;5274;51.992;8.518;2023-05-08T04:56:09;45.20;;;42.30;;
10452;SDS011;5274;51.992;8.518;2023-05-08T04:58:35;46.38;;;43.08;;
10452;SDS011;5274;51.992;8.518;2023-05-08T05:01:01;44.17;;;41.33;;
10452;SDS011;5274;51.992;8.518;2023-05-08T05:03:28;47.60;;;44.40;;
10452;SDS011;5274;51.992;8.518;2023-05-08T05:05:57;44.28;;;41.35;;
10452;SDS011;5274;51.992;8.518;2023-05-08T05:08:23;43.78;;;40.78;;
10452;SDS011;5274;51.992;8.518;2023-05-08T05:10:49;45.17;;;42.25;;
10452;SDS011;5274;51.992;8.518;2023-05-08T05:13:15;41.92;;;39.22;;
10452;SDS011;5274;51.992;8.518;2023-05-08T05:15:41;46.08;;;43.08;;
10452;SDS011;5274;51.992;8.518;2023-05-08T05:18:07;44.08;;;41.28;;
10452;SDS011;5274;51.992;8.518;2023-05-08T05:20:33;44.05;;;41.25;;
10452;SDS011;5274;51.992;8.518;2023-05-08T05:22:59;46.70;;;43.70;;
10452;SDS011;5274;51.992;8.518;2023-05-08T05:25:25;46.15;;;43.13;;
10452;SDS011;5274;51.992;8.518;2023-05-08T05:27:51;50.38;;;47.08;;
10452;SDS011;5274;51.992;8.518;2023-05-08T05:30:17;49.75;;;46.55;;
10452;SDS011;5274;51.992;8.518;2023-05-08T05:32:43;49.20;;;46.08;;
10452;SDS011;5274;51.992;8.518;2023-05-08T05:35:09;46.53;;;43.60;;
10452;SDS011;5274;51.992;8.518;2023-05-08T05:37:35;44.83;;;41.88;;
10452;SDS011;5274;51.992;8.518;2023-05-08T05:40:01;48.30;;;45.20;;
10452;SDS011;5274;51.992;8.518;2023-05-08T05:42:27;48.90;;;45.67;;
10452;SDS011;5274;51.992;8.518;2023-05-08T05:44:53;49.90;;;46.58;;
10452;SDS011;5274;51.992;8.518;2023-05-08T05:47:20;50.97;;;47.42;;
10452;SDS011;5274;51.992;8.518;2023-05-08T05:49:46;47.80;;;44.25;;
10452;SDS011;5274;51.992;8.518;2023-05-08T05:52:13;51.75;;;48.35;;
10452;SDS011;5274;51.992;8.518;2023-05-08T05:54:38;49.28;;;45.97;;
10452;SDS011;5274;51.992;8.518;2023-05-08T05:57:07;49.17;;;46.08;;
10452;SDS011;5274;51.992;8.518;2023-05-08T05:59:33;51.20;;;47.50;;
10452;SDS011;5274;51.992;8.518;2023-05-08T06:01:59;52.78;;;49.28;;
10452;SDS011;5274;51.992;8.518;2023-05-08T06:04:25;52.30;;;48.70;;
10452;SDS011;5274;51.992;8.518;2023-05-08T06:06:51;50.90;;;47.50;;
10452;SDS011;5274;51.992;8.518;2023-05-08T06:09:17;51.00;;;47.67;;
10452;SDS011;5274;51.992;8.518;2023-05-08T06:11:44;50.22;;;46.83;;
10452;SDS011;5274;51.992;8.518;2023-05-08T06:14:10;48.10;;;45.05;;
10452;SDS011;5274;51.992;8.518;2023-05-08T06:16:36;52.08;;;48.53;;
10452;SDS011;5274;51.992;8.518;2023-05-08T06:19:02;53.63;;;49.92;;
10452;SDS011;5274;51.992;8.518;2023-05-08T06:21:28;51.33;;;47.88;;
10452;SDS011;5274;51.992;8.518;2023-05-08T06:23:54;52.45;;;48.95;;
10452;SDS011;5274;51.992;8.518;2023-05-08T06:26:20;54.80;;;50.25;;
10452;SDS011;5274;51.992;8.518;2023-05-08T06:28:47;52.08;;;48.25;;
10452;SDS011;5274;51.992;8.518;2023-05-08T06:31:13;50.97;;;47.22;;
10452;SDS011;5274;51.992;8.518;2023-05-08T06:33:39;47.20;;;43.85;;
10452;SDS011;5274;51.992;8.518;2023-05-08T06:36:05;48.08;;;44.78;;
10452;SDS011;5274;51.992;8.518;2023-05-08T06:38:31;50.38;;;46.83;;
10452;SDS011;5274;51.992;8.518;2023-05-08T06:40:57;51.25;;;47.47;;
10452;SDS011;5274;51.992;8.518;2023-05-08T06:43:23;50.05;;;46.75;;
10452;SDS011;5274;51.992;8.518;2023-05-08T06:45:49;50.92;;;47.33;;
10452;SDS011;5274;51.992;8.518;2023-05-08T06:48:16;49.17;;;45.97;;
10452;SDS011;5274;51.992;8.518;2023-05-08T06:50:42;50.05;;;46.78;;
10452;SDS011;5274;51.992;8.518;2023-05-08T06:53:09;50.55;;;47.05;;
10452;SDS011;5274;51.992;8.518;2023-05-08T06:55:35;48.63;;;45.42;;
10452;SDS011;5274;51.992;8.518;2023-05-08T06:58:01;49.00;;;45.50;;
10452;SDS011;5274;51.992;8.518;2023-05-08T07:00:27;49.80;;;46.35;;
10452;SDS011;5274;51.992;8.518;2023-05-08T07:02:53;50.22;;;46.90;;
10452;SDS011;5274;51.992;8.518;2023-05-08T07:05:19;50.30;;;46.97;;
10452;SDS011;5274;51.992;8.518;2023-05-08T07:07:45;53.38;;;49.72;;
10452;SDS011;5274;51.992;8.518;2023-05-08T07:10:11;50.45;;;47.05;;
10452;SDS011;5274;51.992;8.518;2023-05-08T07:12:38;51.83;;;48.15;;
10452;SDS011;5274;51.992;8.518;2023-05-08T07:15:05;51.55;;;48.13;;
10452;SDS011;5274;51.992;8.518;2023-05-08T07:17:31;53.25;;;49.53;;
10452;SDS011;5274;51.992;8.518;2023-05-08T07:19:57;52.60;;;49.00;;
10452;SDS011;5274;51.992;8.518;2023-05-08T07:22:23;51.85;;;48.15;;
10452;SDS011;5274;51.992;8.518;2023-05-08T07:24:49;51.97;;;48.33;;
10452;SDS011;5274;51.992;8.518;2023-05-08T07:27:15;51.63;;;47.92;;
10452;SDS011;5274;51.992;8.518;2023-05-08T07:29:41;50.17;;;46.88;;
10452;SDS011;5274;51.992;8.518;2023-05-08T07:32:07;48.75;;;45.47;;
10452;SDS011;5274;51.992;8.518;2023-05-08T07:34:33;51.63;;;47.90;;
10452;SDS011;5274;51.992;8.518;2023-05-08T07:36:59;52.00;;;48.42;;
10452;SDS011;5274;51.992;8.518;2023-05-08T07:39:25;52.55;;;48.95;;
10452;SDS011;5274;51.992;8.518;2023-05-08T07:41:51;52.42;;;48.75;;
10452;SDS011;5274;51.992;8.518;2023-05-08T07:44:17;51.08;;;47.67;;
10452;SDS011;5274;51.992;8.518;2023-05-08T07:46:43;55.10;;;51.40;;
10452;SDS011;5274;51.992;8.518;2023-05-08T07:49:09;52.70;;;48.75;;
10452;SDS011;5274;51.992;8.518;2023-05-08T07:51:35;53.63;;;49.95;;
10452;SDS011;5274;51.992;8.518;2023-05-08T07:54:01;53.35;;;49.65;;
10452;SDS011;5274;51.992;8.518;2023-05-08T07:56:27;50.70;;;47.15;;
10452;SDS011;5274;51.992;8.518;2023-05-08T07:58:53;49.67;;;46.38;;
10452;SDS011;5274;51.992;8.518;2023-05-08T08:01:19;50.55;;;47.05;;
10452;SDS011;5274;51.992;8.518;2023-05-08T08:03:45;53.35;;;49.65;;
10452;SDS011;5274;51.992;8.518;2023-05-08T08:06:11;53.60;;;49.83;;
10452;SDS011;5274;51.992;8.518;2023-05-08T08:08:37;51.95;;;48.55;;
10452;SDS011;5274;51.992;8.518;2023-05-08T08:11:03;52.15;;;48.72;;
10452;SDS011;5274;51.992;8.518;2023-05-08T08:13:29;51.25;;;47.65;;
10452;SDS011;5274;51.992;8.518;2023-05-08T08:15:56;50.78;;;47.38;;
10452;SDS011;5274;51.992;8.518;2023-05-08T08:18:22;52.15;;;48.65;;
10452;SDS011;5274;51.992;8.518;2023-05-08T08:20:48;50.95;;;47.38;;
10452;SDS011;5274;51.992;8.518;2023-05-08T08:23:14;52.80;;;49.22;;
10452;SDS011;5274;51.992;8.518;2023-05-08T08:25:40;52.47;;;48.88;;
10452;SDS011;5274;51.992;8.518;2023-05-08T08:28:06;50.50;;;47.05;;
10452;SDS011;5274;51.992;8.518;2023-05-08T08:30:32;50.25;;;47.00;;
10452;SDS011;5274;51.992;8.518;2023-05-08T08:32:58;48.75;;;45.53;;
10452;SDS011;5274;51.992;8.518;2023-05-08T08:35:26;50.67;;;47.35;;
10452;SDS011;5274;51.992;8.518;2023-05-08T08:37:53;52.50;;;49.10;;
10452;SDS011;5274;51.992;8.518;2023-05-08T08:40:19;52.55;;;49.08;;
10452;SDS011;5274;51.992;8.518;2023-05-08T08:42:45;50.70;;;47.50;;
10452;SDS011;5274;51.992;8.518;2023-05-08T08:45:11;50.30;;;47.10;;
10452;SDS011;5274;51.992;8.518;2023-05-08T08:47:37;46.72;;;43.92;;
10452;SDS011;5274;51.992;8.518;2023-05-08T08:50:07;48.75;;;45.85;;
10452;SDS011;5274;51.992;8.518;2023-05-08T08:55:10;48.78;;;45.78;;
10452;SDS011;5274;51.992;8.518;2023-05-08T08:57:38;44.15;;;41.35;;
10452;SDS011;5274;51.992;8.518;2023-05-08T09:00:06;44.35;;;41.53;;
10452;SDS011;5274;51.992;8.518;2023-05-08T09:02:33;42.47;;;39.97;;
10452;SDS011;5274;51.992;8.518;2023-05-08T09:05:00;47.53;;;43.65;;
10452;SDS011;5274;51.992;8.518;2023-05-08T09:07:27;54.40;;;50.70;;
10452;SDS011;5274;51.992;8.518;2023-05-08T09:09:54;54.80;;;51.13;;
10452;SDS011;5274;51.992;8.518;2023-05-08T09:12:20;49.38;;;46.17;;
10452;SDS011;5274;51.992;8.518;2023-05-08T09:14:46;57.65;;;53.38;;
10452;SDS011;5274;51.992;8.518;2023-05-08T09:17:12;53.80;;;50.10;;
10452;SDS011;5274;51.992;8.518;2023-05-08T09:19:38;56.70;;;52.58;;
10452;SDS011;5274;51.992;8.518;2023-05-08T09:22:05;52.72;;;49.13;;
10452;SDS011;5274;51.992;8.518;2023-05-08T09:27:21;57.15;;;53.13;;
10452;SDS011;5274;51.992;8.518;2023-05-08T09:29:57;57.83;;;53.65;;
10452;SDS011;5274;51.992;8.518;2023-05-08T09:32:23;59.53;;;54.95;;
10452;SDS011;5274;51.992;8.518;2023-05-08T09:34:52;59.90;;;55.38;;
10452;SDS011;5274;51.992;8.518;2023-05-08T09:37:17;58.38;;;54.22;;
10452;SDS011;5274;51.992;8.518;2023-05-08T09:39:43;59.25;;;54.92;;
10452;SDS011;5274;51.992;8.518;2023-05-08T09:42:11;56.97;;;52.95;;
10452;SDS011;5274;51.992;8.518;2023-05-08T09:44:45;58.40;;;54.00;;
10452;SDS011;5274;51.992;8.518;2023-05-08T09:47:12;53.67;;;50.08;;
10452;SDS011;5274;51.992;8.518;2023-05-08T09:49:38;54.92;;;51.25;;
10452;SDS011;5274;51.992;8.518;2023-05-08T09:52:04;57.03;;;52.65;;
10452;SDS011;5274;51.992;8.518;2023-05-08T09:54:31;56.13;;;52.17;;
10452;SDS011;5274;51.992;8.518;2023-05-08T09:56:57;54.40;;;50.42;;
10452;SDS011;5274;51.992;8.518;2023-05-08T10:01:50;58.25;;;54.05;;
10452;SDS011;5274;51.992;8.518;2023-05-08T10:04:16;57.58;;;53.58;;
10452;SDS011;5274;51.992;8.518;2023-05-08T10:06:42;57.65;;;53.38;;
10452;SDS011;5274;51.992;8.518;2023-05-08T10:09:14;55.28;;;51.47;;
10452;SDS011;5274;51.992;8.518;2023-05-08T10:11:41;53.80;;;50.10;;
10452;SDS011;5274;51.992;8.518;2023-05-08T10:14:07;56.50;;;52.60;;
10452;SDS011;5274;51.992;8.518;2023-05-08T10:16:35;58.15;;;53.92;;
10452;SDS011;5274;51.992;8.518;2023-05-08T10:19:01;58.72;;;54.17;;
10452;SDS011;5274;51.992;8.518;2023-05-08T10:21:30;56.65;;;52.65;;
10452;SDS011;5274;51.992;8.518;2023-05-08T10:23:57;58.90;;;54.67;;
10452;SDS011;5274;51.992;8.518;2023-05-08T10:26:26;57.88;;;53.88;;
10452;SDS011;5274;51.992;8.518;2023-05-08T10:28:56;54.53;;;50.83;;
10452;SDS011;5274;51.992;8.518;2023-05-08T10:31:26;59.83;;;55.60;;
10452;SDS011;5274;51.992;8.518;2023-05-08T10:33:55;57.35;;;53.38;;
10452;SDS011;5274;51.992;8.518;2023-05-08T10:36:22;50.03;;;46.53;;
10452;SDS011;5274;51.992;8.518;2023-05-08T10:38:48;55.65;;;51.72;;
10452;SDS011;5274;51.992;8.518;2023-05-08T10:41:14;56.25;;;52.38;;
10452;SDS011;5274;51.992;8.518;2023-05-08T10:43:41;59.78;;;55.58;;
10452;SDS011;5274;51.992;8.518;2023-05-08T10:46:14;57.65;;;53.65;;
10452;SDS011;5274;51.992;8.518;2023-05-08T10:48:50;55.60;;;51.78;;
10452;SDS011;5274;51.992;8.518;2023-05-08T10:53:49;61.80;;;57.28;;
10452;SDS011;5274;51.992;8.518;2023-05-08T10:56:17;60.97;;;56.67;;
10452;SDS011;5274;51.992;8.518;2023-05-08T10:58:43;62.13;;;57.63;;
10452;SDS011;5274;51.992;8.518;2023-05-08T11:01:09;63.45;;;58.95;;
10452;SDS011;5274;51.992;8.518;2023-05-08T11:03:39;56.28;;;52.40;;
10452;SDS011;5274;51.992;8.518;2023-05-08T11:06:06;48.15;;;44.85;;
10452;SDS011;5274;51.992;8.518;2023-05-08T11:08:32;53.70;;;50.30;;
10452;SDS011;5274;51.992;8.518;2023-05-08T11:11:09;53.50;;;50.10;;
10452;SDS011;5274;51.992;8.518;2023-05-08T11:13:52;51.70;;;48.50;;
10452;SDS011;5274;51.992;8.518;2023-05-08T11:16:41;51.47;;;47.88;;
10452;SDS011;5274;51.992;8.518;2023-05-08T11:19:37;53.72;;;50.22;;
10452;SDS011;5274;51.992;8.518;2023-05-08T11:22:15;49.47;;;46.33;;
10452;SDS011;5274;51.992;8.518;2023-05-08T11:24:48;53.78;;;50.30;;
10452;SDS011;5274;51.992;8.518;2023-05-08T11:27:15;51.45;;;48.00;;
10452;SDS011;5274;51.992;8.518;2023-05-08T11:29:41;52.35;;;48.83;;
10452;SDS011;5274;51.992;8.518;2023-05-08T11:32:08;50.33;;;46.88;;
10452;SDS011;5274;51.992;8.518;2023-05-08T11:37:16;50.80;;;47.50;;
10452;SDS011;5274;51.992;8.518;2023-05-08T11:39:42;45.67;;;42.88;;
10452;SDS011;5274;51.992;8.518;2023-05-08T11:47:45;50.13;;;46.83;;
10452;SDS011;5274;51.992;8.518;2023-05-08T11:50:11;51.45;;;48.10;;
10452;SDS011;5274;51.992;8.518;2023-05-08T11:52:38;48.45;;;45.45;;
10452;SDS011;5274;51.992;8.518;2023-05-08T11:55:05;52.00;;;48.60;;
10452;SDS011;5274;51.992;8.518;2023-05-08T11:57:32;48.30;;;45.33;;
10452;SDS011;5274;51.992;8.518;2023-05-08T12:00:10;49.00;;;45.95;;
10452;SDS011;5274;51.992;8.518;2023-05-08T12:02:37;49.28;;;46.08;;
10452;SDS011;5274;51.992;8.518;2023-05-08T12:05:03;47.63;;;44.65;;
10452;SDS011;5274;51.992;8.518;2023-05-08T12:07:29;47.70;;;44.45;;
10452;SDS011;5274;51.992;8.518;2023-05-08T12:09:55;45.45;;;42.45;;
10452;SDS011;5274;51.992;8.518;2023-05-08T12:12:21;45.28;;;42.47;;
10452;SDS011;5274;51.992;8.518;2023-05-08T12:14:50;44.63;;;41.83;;
10452;SDS011;5274;51.992;8.518;2023-05-08T12:17:16;49.38;;;46.20;;
10452;SDS011;5274;51.992;8.518;2023-05-08T12:19:45;48.08;;;44.78;;
10452;SDS011;5274;51.992;8.518;2023-05-08T12:22:11;50.58;;;47.17;;
10452;SDS011;5274;51.992;8.518;2023-05-08T12:24:37;51.80;;;48.53;;
10452;SDS011;5274;51.992;8.518;2023-05-08T12:27:03;48.97;;;45.78;;
10452;SDS011;5274;51.992;8.518;2023-05-08T12:29:34;51.35;;;47.80;;
10452;SDS011;5274;51.992;8.518;2023-05-08T12:32:00;51.35;;;47.90;;
10452;SDS011;5274;51.992;8.518;2023-05-08T12:34:26;51.42;;;48.03;;
10452;SDS011;5274;51.992;8.518;2023-05-08T12:37:02;51.15;;;47.75;;
10452;SDS011;5274;51.992;8.518;2023-05-08T12:39:27;51.90;;;48.35;;
10452;SDS011;5274;51.992;8.518;2023-05-08T12:41:53;51.70;;;48.30;;
10452;SDS011;5274;51.992;8.518;2023-05-08T12:44:22;52.55;;;49.25;;
10452;SDS011;5274;51.992;8.518;2023-05-08T12:46:52;51.55;;;48.22;;
10452;SDS011;5274;51.992;8.518;2023-05-08T12:49:27;50.88;;;47.53;;
10452;SDS011;5274;51.992;8.518;2023-05-08T12:52:03;53.72;;;49.95;;
10452;SDS011;5274;51.992;8.518;2023-05-08T12:54:31;50.85;;;47.47;;
10452;SDS011;5274;51.992;8.518;2023-05-08T12:56:57;52.58;;;48.97;;
10452;SDS011;5274;51.992;8.518;2023-05-08T12:59:32;50.65;;;47.15;;
10452;SDS011;5274;51.992;8.518;2023-05-08T13:01:57;52.42;;;48.63;;
10452;SDS011;5274;51.992;8.518;2023-05-08T13:04:23;53.17;;;49.65;;
10452;SDS011;5274;51.992;8.518;2023-05-08T13:06:53;52.65;;;49.25;;
10452;SDS011;5274;51.992;8.518;2023-05-08T13:09:20;53.40;;;49.80;;
10452;SDS011;5274;51.992;8.518;2023-05-08T13:11:47;54.63;;;51.30;;
10452;SDS011;5274;51.992;8.518;2023-05-08T13:14:13;52.58;;;49.08;;
10452;SDS011;5274;51.992;8.518;2023-05-08T13:16:45;54.28;;;50.83;;
10452;SDS011;5274;51.992;8.518;2023-05-08T13:19:11;55.78;;;52.40;;
10452;SDS011;5274;51.992;8.518;2023-05-08T13:21:39;54.95;;;51.53;;
10452;SDS011;5274;51.992;8.518;2023-05-08T13:24:05;54.83;;;51.45;;
10452;SDS011;5274;51.992;8.518;2023-05-08T13:26:31;53.13;;;49.88;;
10452;SDS011;5274;51.992;8.518;2023-05-08T13:28:57;54.65;;;51.35;;
10452;SDS011;5274;51.992;8.518;2023-05-08T13:31:23;51.15;;;48.10;;
10452;SDS011;5274;51.992;8.518;2023-05-08T13:33:49;51.22;;;47.85;;
10452;SDS011;5274;51.992;8.518;2023-05-08T13:36:15;51.90;;;48.75;;
10452;SDS011;5274;51.992;8.518;2023-05-08T13:38:41;53.35;;;49.95;;
10452;SDS011;5274;51.992;8.518;2023-05-08T13:41:07;55.15;;;51.85;;
10452;SDS011;5274;51.992;8.518;2023-05-08T13:43:33;53.15;;;50.05;;
10452;SDS011;5274;51.992;8.518;2023-05-08T13:46:00;53.08;;;49.83;;
10452;SDS011;5274;51.992;8.518;2023-05-08T13:48:26;53.85;;;50.55;;
10452;SDS011;5274;51.992;8.518;2023-05-08T13:50:52;53.80;;;50.63;;
10452;SDS011;5274;51.992;8.518;2023-05-08T13:53:18;52.58;;;49.38;;
10452;SDS011;5274;51.992;8.518;2023-05-08T13:55:44;53.28;;;50.15;;
10452;SDS011;5274;51.992;8.518;2023-05-08T13:58:10;49.83;;;46.78;;
10452;SDS011;5274;51.992;8.518;2023-05-08T14:00:36;54.55;;;51.25;;
10452;SDS011;5274;51.992;8.518;2023-05-08T14:03:02;51.60;;;48.60;;
10452;SDS011;5274;51.992;8.518;2023-05-08T14:05:28;54.80;;;51.40;;
10452;SDS011;5274;51.992;8.518;2023-05-08T14:07:54;53.40;;;50.17;;
10452;SDS011;5274;51.992;8.518;2023-05-08T14:10:20;53.03;;;49.83;;
10452;SDS011;5274;51.992;8.518;2023-05-08T14:12:46;55.72;;;52.28;;
10452;SDS011;5274;51.992;8.518;2023-05-08T14:15:12;52.17;;;49.08;;
10452;SDS011;5274;51.992;8.518;2023-05-08T14:17:38;52.83;;;49.53;;
10452;SDS011;5274;51.992;8.518;2023-05-08T14:20:06;44.97;;;42.25;;
10452;SDS011;5274;51.992;8.518;2023-05-08T14:22:32;45.38;;;42.78;;
10452;SDS011;5274;51.992;8.518;2023-05-08T14:24:58;48.10;;;45.30;;
10452;SDS011;5274;51.992;8.518;2023-05-08T14:27:24;45.85;;;43.15;;
10452;SDS011;5274;51.992;8.518;2023-05-08T14:29:50;48.33;;;45.50;;
10452;SDS011;5274;51.992;8.518;2023-05-08T14:32:17;46.72;;;43.63;;
10452;SDS011;5274;51.992;8.518;2023-05-08T14:34:43;48.95;;;45.75;;
10452;SDS011;5274;51.992;8.518;2023-05-08T14:37:09;51.13;;;47.92;;
10452;SDS011;5274;51.992;8.518;2023-05-08T14:39:36;51.50;;;48.15;;
10452;SDS011;5274;51.992;8.518;2023-05-08T14:42:02;50.58;;;47.33;;
10452;SDS011;5274;51.992;8.518;2023-05-08T14:44:28;51.03;;;47.60;;
10452;SDS011;5274;51.992;8.518;2023-05-08T14:46:54;47.25;;;44.25;;
10452;SDS011;5274;51.992;8.518;2023-05-08T14:49:20;47.33;;;44.13;;
10452;SDS011;5274;51.992;8.518;2023-05-08T14:51:46;47.00;;;43.83;;
10452;SDS011;5274;51.992;8.518;2023-05-08T14:54:12;48.03;;;44.65;;
10452;SDS011;5274;51.992;8.518;2023-05-08T14:56:39;47.65;;;44.33;;
10452;SDS011;5274;51.992;8.518;2023-05-08T14:59:05;46.50;;;43.40;;
10452;SDS011;5274;51.992;8.518;2023-05-08T15:01:31;45.78;;;42.67;;
10452;SDS011;5274;51.992;8.518;2023-05-08T15:03:57;43.50;;;40.60;;
10452;SDS011;5274;51.992;8.518;2023-05-08T15:06:23;45.55;;;42.42;;
10452;SDS011;5274;51.992;8.518;2023-05-08T15:08:50;43.22;;;40.42;;
10452;SDS011;5274;51.992;8.518;2023-05-08T15:11:16;44.75;;;41.38;;
10452;SDS011;5274;51.992;8.518;2023-05-08T15:13:42;43.08;;;40.25;;
10452;SDS011;5274;51.992;8.518;2023-05-08T15:16:08;42.60;;;39.80;;
10452;SDS011;5274;51.992;8.518;2023-05-08T15:18:34;42.35;;;39.35;;
10452;SDS011;5274;51.992;8.518;2023-05-08T15:21:00;41.40;;;38.60;;
10452;SDS011;5274;51.992;8.518;2023-05-08T15:23:26;40.03;;;37.22;;
10452;SDS011;5274;51.992;8.518;2023-05-08T15:25:52;41.08;;;38.17;;